sensor_id;sensor_type;location;lat;lon;timestamp;P1;durP1;ratioP1;P2;durP2;ratioP2
67429;SDS011;54298;52.076;5.264;2024-02-21T00:00:06;7.0;;;3.2;;
67429;SDS011;54298;52.076;5.264;2024-02-21T00:01:43;11.1;;;4.61;;
67429;SDS011;54298;52.076;5.264;2024-02-21T00:03:20;10.8;;;3.3;;
67429;SDS011;54298;52.076;5.264;2024-02-21T00:06:32;9.4;;;3.1;;
67429;SDS011;54298;52.076;5.264;2024-02-21T00:08:08;9.1;;;3.7;;
67429;SDS011;54298;52.076;5.264;2024-02-21T00:09:44;8.0;;;3.4;;
67429;SDS011;54298;52.076;5.264;2024-02-21T00:11:21;8.5;;;3.0;;
67429;SDS011;54298;52.076;5.264;2024-02-21T00:14:33;10.9;;;3.1;;
67429;SDS011;54298;52.076;5.264;2024-02-21T00:16:09;14.3;;;3.2;;
67429;SDS011;54298;52.076;5.264;2024-02-21T00:17:45;8.5;;;3.2;;
67429;SDS011;54298;52.076;5.264;2024-02-21T00:20:57;10.3;;;3.6;;
67429;SDS011;54298;52.076;5.264;2024-02-21T00:22:33;11.5;;;3.4;;
67429;SDS011;54298;52.076;5.264;2024-02-21T00:24:09;11.0;;;3.3;;
67429;SDS011;54298;52.076;5.264;2024-02-21T00:27:21;9.1;;;3.1;;
67429;SDS011;54298;52.076;5.264;2024-02-21T00:28:57;9.71;;;2.9;;
67429;SDS011;54298;52.076;5.264;2024-02-21T00:30:34;7.0;;;2.9;;
67429;SDS011;54298;52.076;5.264;2024-02-21T00:33:46;8.9;;;3.6;;
67429;SDS011;54298;52.076;5.264;2024-02-21T00:35:22;15.4;;;3.8;;
67429;SDS011;54298;52.076;5.264;2024-02-21T00:36:58;8.81;;;3.3;;
67429;SDS011;54298;52.076;5.264;2024-02-21T00:38:34;6.3;;;3.0;;
67429;SDS011;54298;52.076;5.264;2024-02-21T00:41:47;9.5;;;3.1;;
67429;SDS011;54298;52.076;5.264;2024-02-21T00:43:23;13.4;;;3.3;;
67429;SDS011;54298;52.076;5.264;2024-02-21T00:44:59;12.2;;;3.1;;
67429;SDS011;54298;52.076;5.264;2024-02-21T00:48:12;10.7;;;3.4;;
67429;SDS011;54298;52.076;5.264;2024-02-21T00:49:48;9.81;;;3.7;;
67429;SDS011;54298;52.076;5.264;2024-02-21T00:51:24;8.81;;;2.7;;
67429;SDS011;54298;52.076;5.264;2024-02-21T00:54:36;11.7;;;3.1;;
67429;SDS011;54298;52.076;5.264;2024-02-21T00:56:12;10.0;;;2.9;;
67429;SDS011;54298;52.076;5.264;2024-02-21T00:57:48;5.5;;;2.31;;
67429;SDS011;54298;52.076;5.264;2024-02-21T01:01:01;12.5;;;2.7;;
67429;SDS011;54298;52.076;5.264;2024-02-21T01:02:37;10.1;;;3.2;;
67429;SDS011;54298;52.076;5.264;2024-02-21T01:04:13;10.8;;;3.1;;
67429;SDS011;54298;52.076;5.264;2024-02-21T01:05:49;11.4;;;3.2;;
67429;SDS011;54298;52.076;5.264;2024-02-21T01:09:02;9.1;;;3.0;;
67429;SDS011;54298;52.076;5.264;2024-02-21T01:10:38;11.6;;;3.1;;
67429;SDS011;54298;52.076;5.264;2024-02-21T01:12:15;12.0;;;2.9;;
67429;SDS011;54298;52.076;5.264;2024-02-21T01:15:27;12.1;;;3.4;;
67429;SDS011;54298;52.076;5.264;2024-02-21T01:17:03;12.4;;;3.1;;
67429;SDS011;54298;52.076;5.264;2024-02-21T01:18:39;10.1;;;3.5;;
67429;SDS011;54298;52.076;5.264;2024-02-21T01:21:51;10.7;;;3.8;;
67429;SDS011;54298;52.076;5.264;2024-02-21T01:23:28;7.8;;;2.8;;
67429;SDS011;54298;52.076;5.264;2024-02-21T01:25:04;10.7;;;3.4;;
67429;SDS011;54298;52.076;5.264;2024-02-21T01:26:41;7.1;;;3.2;;
67429;SDS011;54298;52.076;5.264;2024-02-21T01:29:54;9.5;;;3.4;;
67429;SDS011;54298;52.076;5.264;2024-02-21T01:31:30;10.8;;;2.9;;
67429;SDS011;54298;52.076;5.264;2024-02-21T01:33:06;9.81;;;2.8;;
67429;SDS011;54298;52.076;5.264;2024-02-21T01:36:18;7.9;;;2.9;;
67429;SDS011;54298;52.076;5.264;2024-02-21T01:37:54;8.6;;;2.7;;
67429;SDS011;54298;52.076;5.264;2024-02-21T01:39:30;9.5;;;3.1;;
67429;SDS011;54298;52.076;5.264;2024-02-21T01:42:43;9.71;;;3.6;;
67429;SDS011;54298;52.076;5.264;2024-02-21T01:44:19;8.31;;;2.6;;
67429;SDS011;54298;52.076;5.264;2024-02-21T01:45:55;9.0;;;3.3;;
67429;SDS011;54298;52.076;5.264;2024-02-21T01:49:11;13.3;;;3.2;;
67429;SDS011;54298;52.076;5.264;2024-02-21T01:50:48;6.9;;;3.1;;
67429;SDS011;54298;52.076;5.264;2024-02-21T01:52:25;13.9;;;4.1;;
67429;SDS011;54298;52.076;5.264;2024-02-21T01:54:01;8.31;;;3.1;;
67429;SDS011;54298;52.076;5.264;2024-02-21T01:57:13;13.5;;;3.5;;
67429;SDS011;54298;52.076;5.264;2024-02-21T01:58:50;9.5;;;3.4;;
67429;SDS011;54298;52.076;5.264;2024-02-21T02:00:27;10.9;;;3.5;;
67429;SDS011;54298;52.076;5.264;2024-02-21T02:03:41;6.0;;;3.3;;
67429;SDS011;54298;52.076;5.264;2024-02-21T02:05:19;8.4;;;3.2;;
67429;SDS011;54298;52.076;5.264;2024-02-21T02:06:56;8.1;;;3.7;;
67429;SDS011;54298;52.076;5.264;2024-02-21T02:08:35;8.6;;;3.6;;
67429;SDS011;54298;52.076;5.264;2024-02-21T02:11:48;9.9;;;3.4;;
67429;SDS011;54298;52.076;5.264;2024-02-21T02:13:24;8.6;;;3.6;;
67429;SDS011;54298;52.076;5.264;2024-02-21T02:15:01;8.9;;;3.1;;
67429;SDS011;54298;52.076;5.264;2024-02-21T02:18:19;15.5;;;4.0;;
67429;SDS011;54298;52.076;5.264;2024-02-21T02:19:56;9.21;;;3.0;;
67429;SDS011;54298;52.076;5.264;2024-02-21T02:21:32;16.7;;;4.2;;
67429;SDS011;54298;52.076;5.264;2024-02-21T02:23:19;8.71;;;3.8;;
67429;SDS011;54298;52.076;5.264;2024-02-21T02:26:34;8.0;;;3.5;;
67429;SDS011;54298;52.076;5.264;2024-02-21T02:28:10;9.31;;;3.8;;
67429;SDS011;54298;52.076;5.264;2024-02-21T02:29:46;11.6;;;4.1;;
67429;SDS011;54298;52.076;5.264;2024-02-21T02:32:58;8.5;;;4.1;;
67429;SDS011;54298;52.076;5.264;2024-02-21T02:34:34;7.5;;;3.4;;
67429;SDS011;54298;52.076;5.264;2024-02-21T02:36:11;10.6;;;3.4;;
67429;SDS011;54298;52.076;5.264;2024-02-21T02:37:48;8.2;;;3.4;;
67429;SDS011;54298;52.076;5.264;2024-02-21T02:41:01;13.6;;;3.5;;
67429;SDS011;54298;52.076;5.264;2024-02-21T02:42:37;8.9;;;3.5;;
67429;SDS011;54298;52.076;5.264;2024-02-21T02:44:13;9.4;;;3.5;;
67429;SDS011;54298;52.076;5.264;2024-02-21T02:47:25;7.9;;;3.2;;
67429;SDS011;54298;52.076;5.264;2024-02-21T02:49:01;10.9;;;3.8;;
67429;SDS011;54298;52.076;5.264;2024-02-21T02:50:37;9.5;;;3.5;;
67429;SDS011;54298;52.076;5.264;2024-02-21T02:53:49;9.71;;;3.3;;
67429;SDS011;54298;52.076;5.264;2024-02-21T02:55:26;12.0;;;3.5;;
67429;SDS011;54298;52.076;5.264;2024-02-21T02:57:02;8.1;;;3.6;;
67429;SDS011;54298;52.076;5.264;2024-02-21T03:00:14;8.71;;;3.7;;
67429;SDS011;54298;52.076;5.264;2024-02-21T03:01:51;11.6;;;3.2;;
67429;SDS011;54298;52.076;5.264;2024-02-21T03:03:27;16.0;;;3.8;;
67429;SDS011;54298;52.076;5.264;2024-02-21T03:05:11;10.3;;;3.6;;
67429;SDS011;54298;52.076;5.264;2024-02-21T03:08:25;10.21;;;3.0;;
67429;SDS011;54298;52.076;5.264;2024-02-21T03:10:01;12.9;;;3.6;;
67429;SDS011;54298;52.076;5.264;2024-02-21T03:11:38;12.6;;;3.1;;
67429;SDS011;54298;52.076;5.264;2024-02-21T03:14:51;7.7;;;3.1;;
67429;SDS011;54298;52.076;5.264;2024-02-21T03:16:27;9.0;;;3.6;;
67429;SDS011;54298;52.076;5.264;2024-02-21T03:18:03;11.6;;;3.5;;
67429;SDS011;54298;52.076;5.264;2024-02-21T03:19:40;9.4;;;3.1;;
67429;SDS011;54298;52.076;5.264;2024-02-21T03:22:52;12.3;;;3.7;;
67429;SDS011;54298;52.076;5.264;2024-02-21T03:24:28;5.2;;;3.0;;
67429;SDS011;54298;52.076;5.264;2024-02-21T03:26:07;8.1;;;2.9;;
67429;SDS011;54298;52.076;5.264;2024-02-21T03:29:19;9.9;;;3.5;;
67429;SDS011;54298;52.076;5.264;2024-02-21T03:30:55;11.1;;;3.7;;
67429;SDS011;54298;52.076;5.264;2024-02-21T03:32:31;8.0;;;3.1;;
67429;SDS011;54298;52.076;5.264;2024-02-21T03:35:46;11.0;;;3.4;;
67429;SDS011;54298;52.076;5.264;2024-02-21T03:37:22;8.6;;;3.4;;
67429;SDS011;54298;52.076;5.264;2024-02-21T03:38:58;12.5;;;3.0;;
67429;SDS011;54298;52.076;5.264;2024-02-21T03:40:34;10.4;;;3.6;;
67429;SDS011;54298;52.076;5.264;2024-02-21T03:43:47;7.2;;;3.2;;
67429;SDS011;54298;52.076;5.264;2024-02-21T03:45:23;6.0;;;3.2;;
67429;SDS011;54298;52.076;5.264;2024-02-21T03:46:59;6.8;;;3.3;;
67429;SDS011;54298;52.076;5.264;2024-02-21T03:50:13;6.6;;;3.4;;
67429;SDS011;54298;52.076;5.264;2024-02-21T03:51:49;9.21;;;3.1;;
67429;SDS011;54298;52.076;5.264;2024-02-21T03:53:25;7.0;;;3.0;;
67429;SDS011;54298;52.076;5.264;2024-02-21T03:56:38;7.5;;;3.1;;
67429;SDS011;54298;52.076;5.264;2024-02-21T03:58:15;10.1;;;3.0;;
67429;SDS011;54298;52.076;5.264;2024-02-21T03:59:51;6.2;;;2.31;;
67429;SDS011;54298;52.076;5.264;2024-02-21T04:03:03;9.5;;;3.1;;
67429;SDS011;54298;52.076;5.264;2024-02-21T04:04:42;8.2;;;2.8;;
67429;SDS011;54298;52.076;5.264;2024-02-21T04:06:18;8.71;;;2.4;;
67429;SDS011;54298;52.076;5.264;2024-02-21T04:07:55;6.4;;;2.8;;
67429;SDS011;54298;52.076;5.264;2024-02-21T04:11:07;7.5;;;2.7;;
67429;SDS011;54298;52.076;5.264;2024-02-21T04:12:43;5.5;;;2.9;;
67429;SDS011;54298;52.076;5.264;2024-02-21T04:14:19;10.5;;;3.3;;
67429;SDS011;54298;52.076;5.264;2024-02-21T04:17:31;5.5;;;2.9;;
67429;SDS011;54298;52.076;5.264;2024-02-21T04:19:07;8.81;;;2.8;;
67429;SDS011;54298;52.076;5.264;2024-02-21T04:20:43;6.7;;;3.1;;
67429;SDS011;54298;52.076;5.264;2024-02-21T04:23:56;7.7;;;2.8;;
67429;SDS011;54298;52.076;5.264;2024-02-21T04:25:32;8.2;;;3.5;;
67429;SDS011;54298;52.076;5.264;2024-02-21T04:27:08;6.6;;;3.4;;
67429;SDS011;54298;52.076;5.264;2024-02-21T04:28:44;5.9;;;3.2;;
67429;SDS011;54298;52.076;5.264;2024-02-21T04:31:57;6.4;;;2.9;;
67429;SDS011;54298;52.076;5.264;2024-02-21T04:33:33;5.3;;;3.0;;
67429;SDS011;54298;52.076;5.264;2024-02-21T04:35:09;8.9;;;3.4;;
67429;SDS011;54298;52.076;5.264;2024-02-21T04:38:21;6.2;;;3.3;;
67429;SDS011;54298;52.076;5.264;2024-02-21T04:39:57;8.81;;;3.0;;
67429;SDS011;54298;52.076;5.264;2024-02-21T04:41:33;8.81;;;3.1;;
67429;SDS011;54298;52.076;5.264;2024-02-21T04:44:46;9.1;;;3.5;;
67429;SDS011;54298;52.076;5.264;2024-02-21T04:46:22;8.4;;;3.3;;
67429;SDS011;54298;52.076;5.264;2024-02-21T04:47:58;6.8;;;3.4;;
67429;SDS011;54298;52.076;5.264;2024-02-21T04:49:34;4.5;;;2.7;;
67429;SDS011;54298;52.076;5.264;2024-02-21T04:52:47;5.8;;;3.0;;
67429;SDS011;54298;52.076;5.264;2024-02-21T04:54:23;6.5;;;3.2;;
67429;SDS011;54298;52.076;5.264;2024-02-21T04:56:03;8.9;;;4.2;;
67429;SDS011;54298;52.076;5.264;2024-02-21T04:59:15;7.9;;;3.3;;
67429;SDS011;54298;52.076;5.264;2024-02-21T05:00:53;8.2;;;3.7;;
67429;SDS011;54298;52.076;5.264;2024-02-21T05:02:29;7.0;;;3.1;;
67429;SDS011;54298;52.076;5.264;2024-02-21T05:05:41;9.81;;;3.5;;
67429;SDS011;54298;52.076;5.264;2024-02-21T05:07:17;9.71;;;3.6;;
67429;SDS011;54298;52.076;5.264;2024-02-21T05:08:53;6.8;;;3.5;;
67429;SDS011;54298;52.076;5.264;2024-02-21T05:10:29;7.3;;;3.3;;
67429;SDS011;54298;52.076;5.264;2024-02-21T05:13:41;6.3;;;3.1;;
67429;SDS011;54298;52.076;5.264;2024-02-21T05:15:18;6.0;;;3.3;;
67429;SDS011;54298;52.076;5.264;2024-02-21T05:16:54;7.4;;;3.3;;
67429;SDS011;54298;52.076;5.264;2024-02-21T05:20:07;8.71;;;3.8;;
67429;SDS011;54298;52.076;5.264;2024-02-21T05:21:44;7.6;;;3.4;;
67429;SDS011;54298;52.076;5.264;2024-02-21T05:23:20;8.2;;;3.4;;
67429;SDS011;54298;52.076;5.264;2024-02-21T05:26:32;7.3;;;3.6;;
67429;SDS011;54298;52.076;5.264;2024-02-21T05:28:08;9.0;;;3.2;;
67429;SDS011;54298;52.076;5.264;2024-02-21T05:29:47;5.9;;;3.2;;
67429;SDS011;54298;52.076;5.264;2024-02-21T05:31:23;6.7;;;3.5;;
67429;SDS011;54298;52.076;5.264;2024-02-21T05:34:40;7.4;;;2.8;;
67429;SDS011;54298;52.076;5.264;2024-02-21T05:36:16;6.7;;;3.3;;
67429;SDS011;54298;52.076;5.264;2024-02-21T05:37:52;8.5;;;2.9;;
67429;SDS011;54298;52.076;5.264;2024-02-21T05:41:04;5.6;;;3.0;;
67429;SDS011;54298;52.076;5.264;2024-02-21T05:42:41;6.4;;;3.6;;
67429;SDS011;54298;52.076;5.264;2024-02-21T05:44:17;7.7;;;4.2;;
67429;SDS011;54298;52.076;5.264;2024-02-21T05:47:30;6.8;;;3.3;;
67429;SDS011;54298;52.076;5.264;2024-02-21T05:49:06;5.9;;;3.1;;
67429;SDS011;54298;52.076;5.264;2024-02-21T05:50:42;11.6;;;3.8;;
67429;SDS011;54298;52.076;5.264;2024-02-21T05:52:19;12.1;;;3.4;;
67429;SDS011;54298;52.076;5.264;2024-02-21T05:55:31;7.1;;;3.5;;
67429;SDS011;54298;52.076;5.264;2024-02-21T05:57:07;6.8;;;3.7;;
67429;SDS011;54298;52.076;5.264;2024-02-21T05:58:44;6.8;;;3.8;;
67429;SDS011;54298;52.076;5.264;2024-02-21T06:01:56;9.0;;;3.9;;
67429;SDS011;54298;52.076;5.264;2024-02-21T06:03:32;6.0;;;3.8;;
67429;SDS011;54298;52.076;5.264;2024-02-21T06:05:09;12.1;;;4.2;;
67429;SDS011;54298;52.076;5.264;2024-02-21T06:08:22;13.2;;;6.0;;
67429;SDS011;54298;52.076;5.264;2024-02-21T06:09:58;18.3;;;8.0;;
67429;SDS011;54298;52.076;5.264;2024-02-21T06:11:34;9.71;;;3.8;;
67429;SDS011;54298;52.076;5.264;2024-02-21T06:14:46;8.1;;;4.5;;
67429;SDS011;54298;52.076;5.264;2024-02-21T06:16:22;13.5;;;5.4;;
67429;SDS011;54298;52.076;5.264;2024-02-21T06:17:58;11.7;;;4.8;;
67429;SDS011;54298;52.076;5.264;2024-02-21T06:19:34;7.6;;;4.1;;
67429;SDS011;54298;52.076;5.264;2024-02-21T06:22:47;15.0;;;4.8;;
67429;SDS011;54298;52.076;5.264;2024-02-21T06:24:23;10.1;;;4.5;;
67429;SDS011;54298;52.076;5.264;2024-02-21T06:26:00;8.81;;;4.41;;
67429;SDS011;54298;52.076;5.264;2024-02-21T06:29:12;9.71;;;4.3;;
67429;SDS011;54298;52.076;5.264;2024-02-21T06:30:48;9.71;;;5.11;;
67429;SDS011;54298;52.076;5.264;2024-02-21T06:32:24;15.1;;;8.31;;
67429;SDS011;54298;52.076;5.264;2024-02-21T06:35:36;19.41;;;9.21;;
67429;SDS011;54298;52.076;5.264;2024-02-21T06:37:15;14.8;;;7.5;;
67429;SDS011;54298;52.076;5.264;2024-02-21T06:38:51;12.1;;;6.1;;
67429;SDS011;54298;52.076;5.264;2024-02-21T06:40:27;12.2;;;6.5;;
67429;SDS011;54298;52.076;5.264;2024-02-21T06:43:40;10.4;;;5.9;;
67429;SDS011;54298;52.076;5.264;2024-02-21T06:45:16;14.9;;;6.1;;
67429;SDS011;54298;52.076;5.264;2024-02-21T06:46:53;13.0;;;6.1;;
67429;SDS011;54298;52.076;5.264;2024-02-21T06:50:05;12.9;;;7.1;;
67429;SDS011;54298;52.076;5.264;2024-02-21T06:51:42;14.4;;;6.1;;
67429;SDS011;54298;52.076;5.264;2024-02-21T06:53:18;17.41;;;7.7;;
67429;SDS011;54298;52.076;5.264;2024-02-21T06:56:30;14.9;;;7.5;;
67429;SDS011;54298;52.076;5.264;2024-02-21T06:58:07;13.1;;;7.5;;
67429;SDS011;54298;52.076;5.264;2024-02-21T06:59:43;21.1;;;8.0;;
67429;SDS011;54298;52.076;5.264;2024-02-21T07:02:55;15.7;;;7.4;;
67429;SDS011;54298;52.076;5.264;2024-02-21T07:04:31;15.9;;;8.4;;
67429;SDS011;54298;52.076;5.264;2024-02-21T07:06:07;22.0;;;9.31;;
67429;SDS011;54298;52.076;5.264;2024-02-21T07:07:43;18.2;;;9.0;;
67429;SDS011;54298;52.076;5.264;2024-02-21T07:10:55;15.1;;;6.7;;
67429;SDS011;54298;52.076;5.264;2024-02-21T07:12:31;14.3;;;7.2;;
67429;SDS011;54298;52.076;5.264;2024-02-21T07:14:07;14.0;;;7.5;;
67429;SDS011;54298;52.076;5.264;2024-02-21T07:17:20;15.4;;;8.0;;
67429;SDS011;54298;52.076;5.264;2024-02-21T07:18:56;17.3;;;8.2;;
67429;SDS011;54298;52.076;5.264;2024-02-21T07:20:32;13.0;;;8.1;;
67429;SDS011;54298;52.076;5.264;2024-02-21T07:23:44;16.9;;;7.4;;
67429;SDS011;54298;52.076;5.264;2024-02-21T07:25:20;14.3;;;6.2;;
67429;SDS011;54298;52.076;5.264;2024-02-21T07:26:56;15.0;;;7.6;;
67429;SDS011;54298;52.076;5.264;2024-02-21T07:28:32;16.61;;;7.2;;
67429;SDS011;54298;52.076;5.264;2024-02-21T07:31:46;12.8;;;6.2;;
67429;SDS011;54298;52.076;5.264;2024-02-21T07:33:22;13.1;;;6.9;;
67429;SDS011;54298;52.076;5.264;2024-02-21T07:34:58;16.9;;;6.5;;
67429;SDS011;54298;52.076;5.264;2024-02-21T07:38:11;30.1;;;15.0;;
67429;SDS011;54298;52.076;5.264;2024-02-21T07:39:47;18.5;;;10.6;;
67429;SDS011;54298;52.076;5.264;2024-02-21T07:41:23;15.5;;;7.4;;
67429;SDS011;54298;52.076;5.264;2024-02-21T07:44:36;15.5;;;7.4;;
67429;SDS011;54298;52.076;5.264;2024-02-21T07:46:12;22.1;;;9.1;;
67429;SDS011;54298;52.076;5.264;2024-02-21T07:47:49;20.41;;;8.71;;
67429;SDS011;54298;52.076;5.264;2024-02-21T07:51:01;12.9;;;7.0;;
67429;SDS011;54298;52.076;5.264;2024-02-21T07:52:37;16.2;;;7.5;;
67429;SDS011;54298;52.076;5.264;2024-02-21T07:54:14;17.3;;;8.31;;
67429;SDS011;54298;52.076;5.264;2024-02-21T07:55:50;17.0;;;7.2;;
67429;SDS011;54298;52.076;5.264;2024-02-21T07:59:02;20.0;;;8.5;;
67429;SDS011;54298;52.076;5.264;2024-02-21T08:00:38;13.7;;;6.3;;
67429;SDS011;54298;52.076;5.264;2024-02-21T08:02:14;18.0;;;7.5;;
67429;SDS011;54298;52.076;5.264;2024-02-21T08:05:28;18.91;;;6.8;;
67429;SDS011;54298;52.076;5.264;2024-02-21T08:07:04;15.2;;;6.5;;
67429;SDS011;54298;52.076;5.264;2024-02-21T08:08:40;12.9;;;6.9;;
67429;SDS011;54298;52.076;5.264;2024-02-21T08:11:53;12.9;;;6.6;;
67429;SDS011;54298;52.076;5.264;2024-02-21T08:13:30;18.7;;;8.2;;
67429;SDS011;54298;52.076;5.264;2024-02-21T08:15:07;11.2;;;6.6;;
67429;SDS011;54298;52.076;5.264;2024-02-21T08:16:44;16.8;;;8.31;;
67429;SDS011;54298;52.076;5.264;2024-02-21T08:19:59;13.9;;;6.1;;
67429;SDS011;54298;52.076;5.264;2024-02-21T08:21:36;14.9;;;7.7;;
67429;SDS011;54298;52.076;5.264;2024-02-21T08:23:12;15.9;;;6.6;;
67429;SDS011;54298;52.076;5.264;2024-02-21T08:26:24;16.7;;;9.71;;
67429;SDS011;54298;52.076;5.264;2024-02-21T08:28:00;24.9;;;12.0;;
67429;SDS011;54298;52.076;5.264;2024-02-21T08:29:36;16.8;;;8.5;;
67429;SDS011;54298;52.076;5.264;2024-02-21T08:32:54;10.9;;;7.0;;
67429;SDS011;54298;52.076;5.264;2024-02-21T08:34:30;13.2;;;8.1;;
67429;SDS011;54298;52.076;5.264;2024-02-21T08:36:06;15.0;;;7.3;;
67429;SDS011;54298;52.076;5.264;2024-02-21T08:37:42;13.2;;;6.9;;
67429;SDS011;54298;52.076;5.264;2024-02-21T08:40:55;16.3;;;7.8;;
67429;SDS011;54298;52.076;5.264;2024-02-21T08:42:31;14.0;;;6.4;;
67429;SDS011;54298;52.076;5.264;2024-02-21T08:44:10;16.7;;;7.6;;
67429;SDS011;54298;52.076;5.264;2024-02-21T08:47:22;12.0;;;6.6;;
67429;SDS011;54298;52.076;5.264;2024-02-21T08:48:58;15.8;;;7.3;;
67429;SDS011;54298;52.076;5.264;2024-02-21T08:50:34;12.6;;;6.0;;
67429;SDS011;54298;52.076;5.264;2024-02-21T08:53:47;13.3;;;6.7;;
67429;SDS011;54298;52.076;5.264;2024-02-21T08:55:25;13.0;;;7.2;;
67429;SDS011;54298;52.076;5.264;2024-02-21T08:57:01;11.4;;;6.0;;
67429;SDS011;54298;52.076;5.264;2024-02-21T08:58:37;18.41;;;6.7;;
67429;SDS011;54298;52.076;5.264;2024-02-21T09:01:52;17.41;;;6.4;;
67429;SDS011;54298;52.076;5.264;2024-02-21T09:03:28;13.0;;;7.4;;
67429;SDS011;54298;52.076;5.264;2024-02-21T09:05:04;15.0;;;7.9;;
67429;SDS011;54298;52.076;5.264;2024-02-21T09:08:20;12.5;;;5.9;;
67429;SDS011;54298;52.076;5.264;2024-02-21T09:09:56;11.5;;;7.0;;
67429;SDS011;54298;52.076;5.264;2024-02-21T09:11:32;11.4;;;6.3;;
67429;SDS011;54298;52.076;5.264;2024-02-21T09:13:10;11.5;;;6.7;;
67429;SDS011;54298;52.076;5.264;2024-02-21T09:16:22;14.0;;;6.8;;
67429;SDS011;54298;52.076;5.264;2024-02-21T09:17:58;11.9;;;6.8;;
67429;SDS011;54298;52.076;5.264;2024-02-21T09:19:34;14.1;;;6.5;;
67429;SDS011;54298;52.076;5.264;2024-02-21T09:22:48;12.0;;;6.7;;
67429;SDS011;54298;52.076;5.264;2024-02-21T09:24:24;14.6;;;6.0;;
67429;SDS011;54298;52.076;5.264;2024-02-21T09:26:00;11.0;;;6.0;;
67429;SDS011;54298;52.076;5.264;2024-02-21T09:29:13;11.5;;;6.6;;
67429;SDS011;54298;52.076;5.264;2024-02-21T09:30:51;13.7;;;7.7;;
67429;SDS011;54298;52.076;5.264;2024-02-21T09:32:27;15.5;;;9.21;;
67429;SDS011;54298;52.076;5.264;2024-02-21T09:34:03;13.5;;;7.4;;
67429;SDS011;54298;52.076;5.264;2024-02-21T09:37:15;13.5;;;6.3;;
67429;SDS011;54298;52.076;5.264;2024-02-21T09:38:51;12.6;;;6.7;;
67429;SDS011;54298;52.076;5.264;2024-02-21T09:40:31;15.9;;;6.8;;
67429;SDS011;54298;52.076;5.264;2024-02-21T09:43:47;13.8;;;6.5;;
67429;SDS011;54298;52.076;5.264;2024-02-21T09:45:25;13.3;;;5.8;;
67429;SDS011;54298;52.076;5.264;2024-02-21T09:47:02;13.0;;;6.6;;
67429;SDS011;54298;52.076;5.264;2024-02-21T09:50:34;9.81;;;5.0;;
67429;SDS011;54298;52.076;5.264;2024-02-21T09:52:14;16.0;;;6.0;;
67429;SDS011;54298;52.076;5.264;2024-02-21T09:53:51;13.8;;;6.9;;
67429;SDS011;54298;52.076;5.264;2024-02-21T09:55:29;10.1;;;5.11;;
67429;SDS011;54298;52.076;5.264;2024-02-21T09:57:08;7.5;;;4.2;;
67429;SDS011;54298;52.076;5.264;2024-02-21T10:00:22;12.6;;;5.9;;
67429;SDS011;54298;52.076;5.264;2024-02-21T10:02:01;10.7;;;5.4;;
67429;SDS011;54298;52.076;5.264;2024-02-21T10:03:37;11.8;;;5.5;;
67429;SDS011;54298;52.076;5.264;2024-02-21T10:06:50;10.3;;;5.0;;
67429;SDS011;54298;52.076;5.264;2024-02-21T10:08:26;8.2;;;4.61;;
67429;SDS011;54298;52.076;5.264;2024-02-21T10:10:03;8.81;;;4.7;;
67429;SDS011;54298;52.076;5.264;2024-02-21T10:13:24;11.5;;;4.5;;
67429;SDS011;54298;52.076;5.264;2024-02-21T10:15:01;13.2;;;6.2;;
67429;SDS011;54298;52.076;5.264;2024-02-21T10:16:38;8.6;;;5.2;;
67429;SDS011;54298;52.076;5.264;2024-02-21T10:18:14;10.4;;;5.11;;
67429;SDS011;54298;52.076;5.264;2024-02-21T10:23:06;8.5;;;5.2;;
67429;SDS011;54298;52.076;5.264;2024-02-21T10:24:45;12.8;;;6.4;;
67429;SDS011;54298;52.076;5.264;2024-02-21T10:26:21;12.6;;;7.3;;
67429;SDS011;54298;52.076;5.264;2024-02-21T10:29:34;7.8;;;4.41;;
67429;SDS011;54298;52.076;5.264;2024-02-21T10:31:11;7.8;;;4.1;;
67429;SDS011;54298;52.076;5.264;2024-02-21T10:32:57;7.0;;;3.4;;
67429;SDS011;54298;52.076;5.264;2024-02-21T10:36:11;7.9;;;4.5;;
67429;SDS011;54298;52.076;5.264;2024-02-21T10:37:47;7.0;;;3.6;;
67429;SDS011;54298;52.076;5.264;2024-02-21T10:39:23;7.1;;;3.4;;
67429;SDS011;54298;52.076;5.264;2024-02-21T10:41:00;9.6;;;4.3;;
67429;SDS011;54298;52.076;5.264;2024-02-21T10:44:13;10.8;;;5.5;;
67429;SDS011;54298;52.076;5.264;2024-02-21T10:45:53;13.2;;;7.8;;
67429;SDS011;54298;52.076;5.264;2024-02-21T10:47:34;5.6;;;3.1;;
67429;SDS011;54298;52.076;5.264;2024-02-21T10:51:00;13.9;;;6.0;;
67429;SDS011;54298;52.076;5.264;2024-02-21T10:52:48;6.8;;;3.8;;
67429;SDS011;54298;52.076;5.264;2024-02-21T10:54:39;7.2;;;3.6;;
67429;SDS011;54298;52.076;5.264;2024-02-21T10:56:22;5.9;;;3.0;;
67429;SDS011;54298;52.076;5.264;2024-02-21T10:58:07;7.3;;;3.6;;
67429;SDS011;54298;52.076;5.264;2024-02-21T11:01:24;7.2;;;4.0;;
67429;SDS011;54298;52.076;5.264;2024-02-21T11:03:02;5.8;;;3.0;;
67429;SDS011;54298;52.076;5.264;2024-02-21T11:04:39;12.8;;;5.7;;
67429;SDS011;54298;52.076;5.264;2024-02-21T11:06:17;7.8;;;4.8;;
67429;SDS011;54298;52.076;5.264;2024-02-21T11:09:33;8.9;;;4.0;;
67429;SDS011;54298;52.076;5.264;2024-02-21T11:11:11;9.31;;;4.5;;
67429;SDS011;54298;52.076;5.264;2024-02-21T11:12:49;10.0;;;5.2;;
67429;SDS011;54298;52.076;5.264;2024-02-21T11:14:28;7.0;;;3.8;;
67429;SDS011;54298;52.076;5.264;2024-02-21T11:17:53;9.21;;;4.61;;
67429;SDS011;54298;52.076;5.264;2024-02-21T11:19:30;8.4;;;4.8;;
67429;SDS011;54298;52.076;5.264;2024-02-21T11:21:06;7.0;;;3.8;;
67429;SDS011;54298;52.076;5.264;2024-02-21T11:24:26;10.4;;;4.5;;
67429;SDS011;54298;52.076;5.264;2024-02-21T11:26:04;10.0;;;4.8;;
67429;SDS011;54298;52.076;5.264;2024-02-21T11:27:45;7.6;;;4.61;;
67429;SDS011;54298;52.076;5.264;2024-02-21T11:29:23;20.9;;;9.6;;
67429;SDS011;54298;52.076;5.264;2024-02-21T11:32:45;6.6;;;4.2;;
67429;SDS011;54298;52.076;5.264;2024-02-21T11:34:21;9.9;;;4.91;;
67429;SDS011;54298;52.076;5.264;2024-02-21T11:35:57;7.8;;;4.1;;
67429;SDS011;54298;52.076;5.264;2024-02-21T11:37:34;10.0;;;5.0;;
67429;SDS011;54298;52.076;5.264;2024-02-21T11:40:47;7.8;;;4.41;;
67429;SDS011;54298;52.076;5.264;2024-02-21T11:42:27;8.4;;;4.7;;
67429;SDS011;54298;52.076;5.264;2024-02-21T11:44:03;7.5;;;4.3;;
67429;SDS011;54298;52.076;5.264;2024-02-21T11:47:16;6.1;;;3.5;;
67429;SDS011;54298;52.076;5.264;2024-02-21T11:48:52;5.5;;;3.7;;
67429;SDS011;54298;52.076;5.264;2024-02-21T11:50:28;12.9;;;7.5;;
67429;SDS011;54298;52.076;5.264;2024-02-21T11:53:42;11.8;;;5.4;;
67429;SDS011;54298;52.076;5.264;2024-02-21T11:55:18;10.1;;;4.1;;
67429;SDS011;54298;52.076;5.264;2024-02-21T11:56:54;8.71;;;4.61;;
67429;SDS011;54298;52.076;5.264;2024-02-21T11:58:31;7.9;;;4.41;;
67429;SDS011;54298;52.076;5.264;2024-02-21T12:01:52;8.2;;;4.0;;
67429;SDS011;54298;52.076;5.264;2024-02-21T12:03:29;8.5;;;4.1;;
67429;SDS011;54298;52.076;5.264;2024-02-21T12:05:06;7.2;;;4.41;;
67429;SDS011;54298;52.076;5.264;2024-02-21T12:08:20;6.0;;;3.7;;
67429;SDS011;54298;52.076;5.264;2024-02-21T12:11:34;5.0;;;3.3;;
67429;SDS011;54298;52.076;5.264;2024-02-21T12:13:11;6.2;;;3.5;;
67429;SDS011;54298;52.076;5.264;2024-02-21T12:16:31;7.1;;;3.8;;
67429;SDS011;54298;52.076;5.264;2024-02-21T12:18:09;10.6;;;4.0;;
67429;SDS011;54298;52.076;5.264;2024-02-21T12:19:46;10.6;;;4.91;;
67429;SDS011;54298;52.076;5.264;2024-02-21T12:23:00;5.9;;;3.7;;
67429;SDS011;54298;52.076;5.264;2024-02-21T12:24:37;7.8;;;4.1;;
67429;SDS011;54298;52.076;5.264;2024-02-21T12:26:13;6.5;;;3.4;;
67429;SDS011;54298;52.076;5.264;2024-02-21T12:27:49;12.3;;;4.0;;
67429;SDS011;54298;52.076;5.264;2024-02-21T12:31:01;5.3;;;3.6;;
67429;SDS011;54298;52.076;5.264;2024-02-21T12:32:37;5.8;;;3.7;;
67429;SDS011;54298;52.076;5.264;2024-02-21T12:34:14;5.8;;;3.3;;
67429;SDS011;54298;52.076;5.264;2024-02-21T12:37:27;5.8;;;3.4;;
67429;SDS011;54298;52.076;5.264;2024-02-21T12:39:03;5.11;;;3.1;;
67429;SDS011;54298;52.076;5.264;2024-02-21T12:40:39;8.81;;;3.4;;
67429;SDS011;54298;52.076;5.264;2024-02-21T12:43:51;6.7;;;3.2;;
67429;SDS011;54298;52.076;5.264;2024-02-21T12:45:27;8.2;;;3.0;;
67429;SDS011;54298;52.076;5.264;2024-02-21T12:47:04;6.2;;;2.6;;
67429;SDS011;54298;52.076;5.264;2024-02-21T12:48:40;9.0;;;3.5;;
67429;SDS011;54298;52.076;5.264;2024-02-21T12:51:53;7.3;;;3.4;;
67429;SDS011;54298;52.076;5.264;2024-02-21T12:53:30;9.4;;;3.0;;